createdAt,value
2016-11-24T00:00:02.201Z,91.8
2016-11-24T00:05:02.586Z,92.12
2016-11-24T00:10:02.953Z,92.03
2016-11-24T00:15:02.296Z,92.09
2016-11-24T00:20:02.745Z,92.31
2016-11-24T00:25:02.095Z,92.34
2016-11-24T00:30:02.456Z,91.96
2016-11-24T00:35:02.793Z,93.33
2016-11-24T00:40:02.098Z,92.8
2016-11-24T00:45:02.519Z,92.43
2016-11-24T00:50:02.864Z,92.38
2016-11-24T00:55:02.220Z,92.51
2016-11-24T01:00:02.577Z,92.69
2016-11-24T01:05:02.925Z,92.87
2016-11-24T01:10:02.272Z,92.52
2016-11-24T01:15:02.584Z,92.38
2016-11-24T01:20:03.009Z,92.47
2016-11-24T01:25:02.350Z,92.19
2016-11-24T01:30:02.697Z,92.32
2016-11-24T01:35:03.028Z,92.45
2016-11-24T01:40:02.376Z,92.35
2016-11-24T01:45:02.716Z,92.19
2016-11-24T01:50:02.063Z,91.97
2016-11-24T01:55:02.454Z,92.34
2016-11-24T02:00:02.792Z,92.15
2016-11-24T02:05:02.143Z,92.23
2016-11-24T02:10:02.491Z,92.02
2016-11-24T02:15:02.826Z,92.35
2016-11-24T02:20:02.249Z,92.89
2016-11-24T02:25:02.581Z,92.07
2016-11-24T02:30:02.938Z,91.74
2016-11-24T02:35:02.277Z,91.92
2016-11-24T02:40:02.603Z,92.27
2016-11-24T02:45:02.946Z,92.29
2016-11-24T02:50:02.264Z,92.09
2016-11-24T02:55:02.581Z,92.28
2016-11-24T03:00:02.916Z,92.3
2016-11-24T03:05:02.246Z,91.98
2016-11-24T03:10:02.618Z,92.33
2016-11-24T03:15:03.037Z,92.32
2016-11-24T03:20:02.474Z,92.47
2016-11-24T03:25:02.831Z,92.95
2016-11-24T03:30:02.229Z,92.74
2016-11-24T03:35:02.586Z,92.85
2016-11-24T03:40:02.911Z,92.51
2016-11-24T03:45:02.247Z,92.26
2016-11-24T03:50:02.591Z,92.26
2016-11-24T03:55:02.932Z,92.32
2016-11-24T04:00:02.266Z,92.96
2016-11-24T04:05:02.840Z,92.89
2016-11-24T04:10:02.172Z,92.85
2016-11-24T04:15:02.494Z,93.58
2016-11-24T04:20:02.925Z,94.63
2016-11-24T04:25:02.262Z,94.55
2016-11-24T04:30:02.615Z,93.92
2016-11-24T04:35:02.940Z,94.48
2016-11-24T04:40:02.273Z,95.17
2016-11-24T04:45:02.618Z,94.89
2016-11-24T04:50:03.016Z,94.34
2016-11-24T04:55:02.403Z,94.8
2016-11-24T05:00:02.754Z,94.98
2016-11-24T05:05:02.097Z,94.37
2016-11-24T05:10:02.493Z,94.59
2016-11-24T05:15:02.870Z,94.69
2016-11-24T05:20:02.397Z,94.87
2016-11-24T05:25:02.932Z,94.69
2016-11-24T05:30:02.294Z,94.19
2016-11-24T05:35:02.636Z,94.94
2016-11-24T05:40:02.923Z,94.96
2016-11-24T05:45:02.208Z,94.32
2016-11-24T05:50:02.575Z,94.27
2016-11-24T05:55:02.977Z,94.45
2016-11-24T06:00:02.323Z,94.01
2016-11-24T06:05:02.689Z,94.12
2016-11-24T06:10:02.070Z,93.91
2016-11-24T06:15:02.454Z,94.04
2016-11-24T06:20:02.863Z,93.47
2016-11-24T06:25:02.213Z,93.59
2016-11-24T06:30:02.564Z,93.57
2016-11-24T06:35:02.919Z,93.66
2016-11-24T06:40:02.285Z,93.9
2016-11-24T06:45:02.610Z,93.46
2016-11-24T06:50:02.969Z,94.03
2016-11-24T06:55:02.314Z,93.94
2016-11-24T07:00:02.653Z,93.96
2016-11-24T07:05:03.000Z,93.95
2016-11-24T07:10:02.354Z,94.09
2016-11-24T07:15:02.667Z,93.65
2016-11-24T07:20:02.085Z,92.9
2016-11-24T07:25:02.471Z,92.9
2016-11-24T07:30:02.813Z,92.76
2016-11-24T07:35:02.192Z,92.61
2016-11-24T07:40:02.551Z,92.41
2016-11-24T07:45:02.882Z,92.21
2016-11-24T07:50:02.246Z,92.04
2016-11-24T07:55:02.616Z,92.12
2016-11-24T08:00:02.964Z,92.17
2016-11-24T08:05:02.313Z,92.05
2016-11-24T08:10:02.697Z,91.88
2016-11-24T08:15:03.048Z,92.14
2016-11-24T08:20:02.528Z,92.29
2016-11-24T08:25:02.886Z,92.01
2016-11-24T08:30:02.223Z,91.72
2016-11-24T08:35:02.548Z,91.52
2016-11-24T08:40:02.916Z,91.72
2016-11-24T08:45:02.268Z,91.5
2016-11-24T08:50:02.616Z,91.39
2016-11-24T08:55:02.993Z,91.4
2016-11-24T09:00:02.314Z,91.42
2016-11-24T09:05:02.634Z,91.16
2016-11-24T09:10:02.962Z,90.81
2016-11-24T09:15:02.302Z,90.55
2016-11-24T09:20:02.735Z,90.49
2016-11-24T09:25:02.058Z,90.45
2016-11-24T09:30:02.435Z,90.36
2016-11-24T09:35:02.743Z,90.08
2016-11-24T09:40:02.060Z,89.8
2016-11-24T09:45:02.429Z,89.42
2016-11-24T09:50:02.800Z,89.23
2016-11-24T09:55:02.106Z,88.8
2016-11-24T10:00:02.489Z,88.49
2016-11-24T10:05:02.818Z,88.52
2016-11-24T10:10:02.147Z,88.19
2016-11-24T10:15:02.502Z,88.38
2016-11-24T10:20:02.907Z,88.6
2016-11-24T10:25:02.237Z,88.14
2016-11-24T10:30:02.573Z,87.91
2016-11-24T10:35:02.936Z,87.51
2016-11-24T10:40:02.272Z,86.81
2016-11-24T10:45:02.618Z,86.76
2016-11-24T10:50:02.945Z,87.17
2016-11-24T10:55:02.279Z,86.69
2016-11-24T11:00:02.597Z,86.5
2016-11-24T11:05:02.938Z,85.99
2016-11-24T11:10:02.272Z,85.79
2016-11-24T11:15:02.592Z,85.71
2016-11-24T11:20:03.004Z,85.21
2016-11-24T11:25:02.331Z,85.38
2016-11-24T11:30:02.694Z,84.96
2016-11-24T11:35:01.986Z,85.81
2016-11-24T11:40:02.386Z,85.02
2016-11-24T11:45:02.740Z,85.26
2016-11-24T11:50:02.087Z,84.73
2016-11-24T11:55:02.482Z,84.11
2016-11-24T12:00:02.839Z,83.63
2016-11-24T12:05:02.185Z,83.69
